Terminal Aerodrome Forecast
Issued by NWS Albany, NY

Home | Current Version | Previous Version | Text Only | Print | Product List | Glossary On
Versions: 1 2 3 4 5 6 7 8 9 10 11 12 13 14 15 16 17 18 19 20 21
671
FTUS41 KALY 191740
TAFGFL
TAF
KGFL 191740Z 1918/2018 22009KT P6SM SCT045 SCT250
     FM192100 23007KT P6SM BKN045
     FM200200 23005KT P6SM SCT050 OVC100
     FM200800 VRB03KT 2SM BR SCT003 BKN015
     FM201300 26006KT P6SM SCT015 SCT250=

USA.gov is the U.S. government's official web portal to all federal, state and local government web resources and services.